Latest Coastal Weather Observations for Thevenard Island

IDW60701

Issued at 7:53 pm WST Sunday 9 August 2020 (issued every 10 minutes, with the page automatically refreshed every 10 minutes)

About coastal observations | Map of coastal stations | Coastal observations for WA | Marine services | Other Formats
Station Details ID: 005084 Name: THEVENARD ISLAND Lat: -21.46 Lon: 115.02 Height: 5.0 m
Data from the previous 72 hours. | See also: Recent months at Thevenard Island
Date/Time
WST
Wind Sea
Height
m
Swell Vis
km
Cloud Weather Temp
°C
Press
hPa
Rain since
9am
mm
Dir  Spd
kts
Gust
kts
Height
m
Period
s
Dir
09/07:30pm NNW 20 27 - - - - - - - 23.1 1010.5 0.0
09/07:00pm NNW 15 19 - - - - - - - 24.1 1010.0 0.0
09/06:30pm NNW 15 20 - - - - - - - 24.1 1009.9 0.0
09/06:00pm N 15 19 - - - - - - - 24.2 1009.6 0.0
09/05:30pm NNW 15 24 - - - - - - - 24.4 1009.6 0.0
09/05:00pm N 17 22 - - - - - - - 24.6 1009.3 0.0
09/04:30pm N 17 25 - - - - - - - 25.0 1009.1 0.0
09/04:00pm N 15 20 - - - - - - - 25.2 1009.2 0.0
09/03:30pm N 19 24 - - - - - - - 25.1 1009.3 0.0
09/03:00pm N 20 24 - - - - - - - 24.9 1009.2 0.0
09/02:30pm N 21 24 - - - - - - - 25.0 1009.4 0.0
09/02:00pm N 20 25 - - - - - - - 25.0 1009.5 0.0
09/01:30pm N 21 25 - - - - - - - 25.3 1009.7 0.0
09/01:00pm N 23 26 - - - - - - - 25.4 1010.1 0.0
09/12:30pm N 21 27 - - - - - - - 25.6 1010.6 0.0
09/12:00pm N 20 24 - - - - - - - 25.1 1011.1 0.0
09/11:30am N 16 21 - - - - - - - 24.7 1011.7 0.0
09/11:00am N 16 20 - - - - - - - 24.3 1012.2 0.0
09/10:30am N 15 19 - - - - - - - 24.4 1012.4 0.0
09/10:00am N 15 20 - - - - - - - 24.4 1012.6 0.0
09/09:30am N 15 23 - - - - - - - 24.1 1012.4 0.0
09/09:00am N 17 22 - - - - - - - 23.1 1012.4 0.0
09/08:30am NNE 14 20 - - - - - - - 22.6 1012.4 0.0
09/08:00am NNE 14 18 - - - - - - - 22.3 1012.3 0.0
09/07:30am N 12 18 - - - - - - - 21.4 1012.4 0.0
09/07:05am N 15 29 - - - - - - - 22.0 1012.2 0.0
09/07:00am N 12 17 - - - - - - - 21.8 1012.3 0.0
09/06:30am NNE 14 18 - - - - - - - 22.4 1011.9 0.0
09/06:00am NNE 16 20 - - - - - - - 22.4 1011.8 0.0
09/05:30am NNE 15 18 - - - - - - - 22.4 1011.5 0.0
09/05:00am NNE 13 17 - - - - - - - 22.3 1011.4 0.0
09/04:30am NNE 13 17 - - - - - - - 22.2 1011.4 0.0
09/04:00am NNE 14 19 - - - - - - - 22.5 1011.7 0.0
09/03:30am NNE 15 21 - - - - - - - 22.2 1011.9 0.0
09/03:00am NNE 17 21 - - - - - - - 22.3 1012.1 0.0
09/02:30am NNE 15 21 - - - - - - - 22.2 1012.1 0.0
09/02:00am NNE 16 21 - - - - - - - 22.2 1012.2 0.0
09/01:30am NNE 17 22 - - - - - - - 22.1 1012.4 0.0
09/01:00am NNE 16 20 - - - - - - - 21.9 1012.7 0.0
09/12:30am NNE 17 22 - - - - - - - 21.9 1013.0 0.0
09/12:00am NNE 19 25 - - - - - - - 21.9 1013.2 0.0
 
Date/Time
WST
Wind Sea
Height
m
Swell Vis
km
Cloud Weather Temp
°C
Press
hPa
Rain since
9am
mm
Dir  Spd
kts
Gust
kts
Height
m
Period
s
Dir
08/11:30pm NNE 18 23 - - - - - - - 21.9 1013.4 0.0
08/11:00pm NNE 17 22 - - - - - - - 21.8 1013.6 0.0
08/10:30pm NNE 15 19 - - - - - - - 21.7 1013.7 0.0
08/10:00pm NNE 15 20 - - - - - - - 21.7 1013.7 0.0
08/09:30pm NE 17 22 - - - - - - - 21.7 1013.6 0.0
08/09:00pm NE 18 23 - - - - - - - 21.7 1013.5 0.0
08/08:30pm NE 17 22 - - - - - - - 21.7 1013.1 0.0
08/08:00pm NE 17 22 - - - - - - - 21.7 1013.0 0.0
08/07:30pm NE 19 22 - - - - - - - 21.7 1013.2 0.0
08/07:00pm NE 19 24 - - - - - - - 21.8 1013.2 0.0
08/06:30pm NE 19 28 - - - - - - - 21.7 1012.6 0.0
08/06:00pm NE 20 26 - - - - - - - 22.0 1012.9 0.0
08/05:30pm NE 19 26 - - - - - - - 22.3 1012.9 0.0
08/05:00pm NE 19 25 - - - - - - - 22.5 1013.0 0.0
08/04:30pm NE 18 25 - - - - - - - 22.9 1013.1 0.0
08/04:00pm NE 17 22 - - - - - - - 22.9 1013.2 0.0
08/03:30pm NE 17 22 - - - - - - - 23.6 1013.4 0.0
08/03:00pm NE 17 21 - - - - - - - 23.4 1013.2 0.0
08/02:30pm NE 17 21 - - - - - - - 23.5 1013.4 0.0
08/02:00pm NE 19 25 - - - - - - - 23.5 1013.4 0.0
08/01:30pm NE 20 27 - - - - - - - 24.2 1013.6 0.0
08/01:00pm NE 18 24 - - - - - - - 23.8 1014.3 0.0
08/12:30pm NE 17 23 - - - - - - - 23.3 1014.9 0.0
08/12:00pm NE 16 22 - - - - - - - 24.0 1015.8 0.0
08/11:30am NE 15 22 - - - - - - - 24.0 1016.1 0.0
08/11:00am ENE 11 14 - - - - - - - 23.1 1016.9 0.0
08/10:30am ENE 12 15 - - - - - - - 23.1 1017.1 0.0
08/10:00am ENE 13 17 - - - - - - - 22.4 1017.2 0.0
08/09:30am ENE 14 17 - - - - - - - 21.7 1017.2 0.0
08/09:00am ENE 11 15 - - - - - - - 21.4 1017.1 0.0
08/08:30am E 12 16 - - - - - - - 20.7 1016.9 0.0
08/08:00am E 13 17 - - - - - - - 20.5 1016.6 0.0
08/07:30am E 13 17 - - - - - - - 19.9 1016.4 0.0
08/07:00am E 13 17 - - - - - - - 19.3 1016.3 0.0
08/06:30am E 14 18 - - - - - - - 19.2 1016.2 0.0
08/06:00am E 12 16 - - - - - - - 19.2 1015.9 0.0
08/05:30am E 11 14 - - - - - - - 19.3 1015.7 0.0
08/05:00am E 9 12 - - - - - - - 19.4 1015.4 0.0
08/04:30am E 9 11 - - - - - - - 19.4 1015.4 0.0
08/04:00am E 9 12 - - - - - - - 19.4 1015.3 0.0
08/03:30am E 8 10 - - - - - - - 19.7 1015.4 0.0
08/03:00am ENE 7 8 - - - - - - - 20.4 1015.4 0.0
08/02:30am NNE 6 7 - - - - - - - 20.2 1015.4 0.0
08/02:00am N 5 6 - - - - - - - 20.8 1015.5 0.0
08/01:30am N 7 8 - - - - - - - 21.2 1015.8 0.0
08/01:00am N 7 8 - - - - - - - 20.9 1015.9 0.0
08/12:30am N 7 9 - - - - - - - 20.9 1016.1 0.0
08/12:00am N 8 10 - - - - - - - 21.0 1016.1 0.0
 
Date/Time
WST
Wind Sea
Height
m
Swell Vis
km
Cloud Weather Temp
°C
Press
hPa
Rain since
9am
mm
Dir  Spd
kts
Gust
kts
Height
m
Period
s
Dir
07/11:30pm NNW 8 10 - - - - - - - 20.9 1016.4 0.0
07/11:00pm N 9 13 - - - - - - - 21.3 1016.5 0.0
07/10:30pm N 11 13 - - - - - - - 21.6 1016.6 0.0
07/10:00pm N 12 15 - - - - - - - 21.7 1016.6 0.0
07/09:30pm N 12 16 - - - - - - - 21.6 1016.5 0.0
07/09:00pm N 12 17 - - - - - - - 21.6 1016.4 0.0
07/08:30pm N 12 16 - - - - - - - 21.7 1016.5 0.0
07/08:00pm N 11 18 - - - - - - - 21.8 1016.4 0.0
07/07:30pm NNE 12 16 - - - - - - - 21.5 1016.1 0.0
07/07:00pm NNE 12 15 - - - - - - - 21.4 1015.9 0.0
07/06:30pm NNE 14 17 - - - - - - - 21.5 1015.8 0.0
07/06:00pm NNE 14 17 - - - - - - - 21.8 1015.7 0.0
07/05:30pm NNE 13 17 - - - - - - - 22.3 1015.8 0.0
07/05:00pm N 14 19 - - - - - - - 22.9 1015.8 0.0
07/04:30pm N 14 19 - - - - - - - 23.2 1015.7 0.0
07/04:00pm N 15 20 - - - - - - - 23.2 1015.7 0.0
07/03:30pm N 14 19 - - - - - - - 23.6 1015.8 0.0
07/03:00pm NNE 16 22 - - - - - - - 23.7 1016.1 0.0
07/02:30pm NNE 17 22 - - - - - - - 23.7 1016.4 0.0
07/02:00pm NNE 16 22 - - - - - - - 24.0 1016.8 0.0
07/01:30pm NNE 15 19 - - - - - - - 24.3 1017.3 0.0
07/01:00pm NE 14 18 - - - - - - - 23.9 1018.0 0.0
07/12:30pm NE 14 19 - - - - - - - 24.1 1018.4 0.0
07/12:00pm NE 13 18 - - - - - - - 23.7 1018.8 0.0
07/11:30am NE 14 19 - - - - - - - 23.2 1019.3 0.0
07/11:00am ENE 15 21 - - - - - - - 23.2 1019.3 0.0
07/10:30am NE 15 19 - - - - - - - 22.1 1019.3 0.0
07/10:00am ENE 17 22 - - - - - - - 21.5 1019.1 0.0
07/09:30am ENE 15 20 - - - - - - - 21.7 1019.3 0.0
07/09:00am ENE 16 22 - - - - - - - 21.2 1019.0 0.0
07/08:30am ENE 20 27 - - - - - - - 20.9 1018.6 0.0
07/08:00am ENE 18 24 - - - - - - - 20.9 1018.3 0.0
07/07:30am E 17 24 - - - - - - - 19.9 1018.0 0.0
07/07:00am E 15 20 - - - - - - - 18.6 1017.3 0.0
07/06:30am ESE 10 13 - - - - - - - 18.2 1016.6 0.0
07/06:00am ESE 9 11 - - - - - - - 18.6 1016.2 0.0
07/05:30am SE 9 11 - - - - - - - 18.4 1015.9 0.0
07/05:00am SE 9 11 - - - - - - - 18.4 1015.8 0.0
07/04:30am SE 9 11 - - - - - - - 18.6 1015.6 0.0
07/04:00am SE 8 9 - - - - - - - 18.9 1015.8 0.0
07/03:30am ESE 6 7 - - - - - - - 18.9 1015.9 0.0
07/03:00am ESE 7 8 - - - - - - - 19.4 1016.1 0.0
07/02:30am W 7 9 - - - - - - - 19.3 1016.1 0.0
07/02:00am W 5 6 - - - - - - - 18.7 1016.3 0.0
07/01:30am CALM 0 0 - - - - - - - 15.2 1016.6 0.0
07/01:00am CALM 0 0 - - - - - - - 15.4 1016.7 0.0
07/12:30am CALM 0 0 - - - - - - - 15.6 1016.9 0.0
07/12:00am CALM 0 0 - - - - - - - 15.6 1016.8 0.0
 
Date/Time
WST
Wind Sea
Height
m
Swell Vis
km
Cloud Weather Temp
°C
Press
hPa
Rain since
9am
mm
Dir  Spd
kts
Gust
kts
Height
m
Period
s
Dir
06/11:30pm CALM 0 0 - - - - - - - 15.3 1016.9 0.0
06/11:00pm CALM 0 0 - - - - - - - 15.1 1017.1 0.0
06/10:30pm CALM 0 0 - - - - - - - 15.8 1017.2 0.0
06/10:00pm CALM 0 0 - - - - - - - 16.8 1017.1 0.0
06/09:30pm WNW 2 3 - - - - - - - 17.1 1017.1 0.0
06/09:00pm WNW 4 4 - - - - - - - 17.6 1017.0 0.0
06/08:30pm WNW 5 6 - - - - - - - 18.1 1016.9 0.0
06/08:00pm W 5 6 - - - - - - - 18.3 1016.7 0.0

Other formats

Comma delimited format used in spreadsheet applications
http://www.bom.gov.au/fwo/IDW60701/IDW60701.94303.axf

JavaScript Object Notation format (JSON) in row-major order
http://www.bom.gov.au/fwo/IDW60701/IDW60701.94303.json

Data quality

Most of these data are generated automatically and are frequently updated. Quality checks on data are not normally performed. It is possible for incorrect values to appear. Refer to information at About Latest Weather Observations and please check the disclaimer before using these data.